createdAt,value
2023-01-27T00:00:27.838Z,2.53
2023-01-27T00:01:24.592Z,2.55
2023-01-27T00:02:21.313Z,2.30
2023-01-27T00:03:18.393Z,2.30
2023-01-27T00:04:15.032Z,2.42
2023-01-27T00:05:13.700Z,2.55
2023-01-27T00:06:12.015Z,2.30
2023-01-27T00:07:08.602Z,2.80
2023-01-27T00:08:05.378Z,2.35
2023-01-27T00:09:02.000Z,2.28
2023-01-27T00:09:58.549Z,2.45
2023-01-27T00:11:19.966Z,2.10
2023-01-27T00:12:41.178Z,4.13
2023-01-27T00:13:37.916Z,2.22
2023-01-27T00:14:34.471Z,2.10
2023-01-27T00:15:32.117Z,2.22
2023-01-27T00:16:28.830Z,2.45
2023-01-27T00:17:25.511Z,2.17
2023-01-27T00:18:23.603Z,2.40
2023-01-27T00:19:20.253Z,2.30
2023-01-27T00:20:35.451Z,2.00
2023-01-27T00:21:50.329Z,2.90
2023-01-27T00:23:19.098Z,1.90
2023-01-27T00:24:34.646Z,1.85
2023-01-27T00:25:31.957Z,1.83
2023-01-27T00:26:28.578Z,2.35
2023-01-27T00:27:27.246Z,2.28
2023-01-27T00:28:25.586Z,3.30
2023-01-27T00:29:22.304Z,2.40
2023-01-27T00:30:18.962Z,2.15
2023-01-27T00:31:36.575Z,2.55
2023-01-27T00:32:52.119Z,2.78
2023-01-27T00:33:49.573Z,2.00
2023-01-27T00:34:46.500Z,2.40
2023-01-27T00:35:43.099Z,2.10
2023-01-27T00:36:42.020Z,2.13
2023-01-27T00:37:38.657Z,2.58
2023-01-27T00:38:42.030Z,2.20
2023-01-27T00:39:38.997Z,2.50
2023-01-27T00:40:35.613Z,2.50
2023-01-27T00:41:33.997Z,2.20
2023-01-27T00:42:30.609Z,2.30
2023-01-27T00:43:27.160Z,2.22
2023-01-27T00:44:24.022Z,2.33
2023-01-27T00:45:39.459Z,2.30
2023-01-27T00:46:36.060Z,1.95
2023-01-27T00:47:33.965Z,2.25
2023-01-27T00:48:30.978Z,2.25
2023-01-27T00:49:27.705Z,1.90
2023-01-27T00:50:24.732Z,3.50
2023-01-27T00:51:21.661Z,2.08
2023-01-27T00:52:18.318Z,2.08
2023-01-27T00:53:15.017Z,1.88
2023-01-27T00:54:11.735Z,2.35
2023-01-27T00:55:08.995Z,2.40
2023-01-27T00:56:06.173Z,2.55
2023-01-27T00:57:04.441Z,2.38
2023-01-27T00:58:01.092Z,3.00
2023-01-27T00:58:57.693Z,2.03
2023-01-27T00:59:54.338Z,2.17
2023-01-27T01:00:53.579Z,1.85
2023-01-27T01:01:50.232Z,2.03
2023-01-27T01:02:46.934Z,1.65
2023-01-27T01:03:44.613Z,1.92
2023-01-27T01:04:41.246Z,1.92
2023-01-27T01:05:38.020Z,2.08
2023-01-27T01:06:34.729Z,1.90
2023-01-27T01:07:31.292Z,1.80
2023-01-27T01:08:29.958Z,1.70
2023-01-27T01:09:26.756Z,1.70
2023-01-27T01:10:23.460Z,2.17
2023-01-27T01:11:21.463Z,2.38
2023-01-27T01:12:18.171Z,2.22
2023-01-27T01:13:14.891Z,2.90
2023-01-27T01:14:11.522Z,2.15
2023-01-27T01:15:08.958Z,1.77
2023-01-27T01:16:12.970Z,1.80
2023-01-27T01:17:09.759Z,1.98
2023-01-27T01:18:09.201Z,2.00
2023-01-27T01:19:05.802Z,2.15
2023-01-27T01:20:02.568Z,2.28
2023-01-27T01:20:59.241Z,2.08
2023-01-27T01:21:55.875Z,2.25
2023-01-27T01:22:52.474Z,1.50
2023-01-27T01:23:49.111Z,1.55
2023-01-27T01:24:45.960Z,1.50
2023-01-27T01:25:42.733Z,1.80
2023-01-27T01:26:39.330Z,1.80
2023-01-27T01:27:35.969Z,1.80
2023-01-27T01:28:33.133Z,2.00
2023-01-27T01:29:29.878Z,1.90
2023-01-27T01:30:27.532Z,1.80
2023-01-27T01:31:24.200Z,1.75
2023-01-27T01:32:20.928Z,1.92
2023-01-27T01:33:17.710Z,1.60
2023-01-27T01:34:14.264Z,1.83
2023-01-27T01:35:10.908Z,1.70
2023-01-27T01:36:09.756Z,1.60
2023-01-27T01:37:06.437Z,1.83
2023-01-27T01:38:03.037Z,1.98
2023-01-27T01:38:59.642Z,1.75
2023-01-27T01:39:56.300Z,1.80
2023-01-27T01:40:52.873Z,1.85
2023-01-27T01:41:49.459Z,1.92
2023-01-27T01:43:08.787Z,1.85
2023-01-27T01:44:27.299Z,3.65
2023-01-27T01:45:48.906Z,2.70
2023-01-27T01:46:45.533Z,3.40
2023-01-27T01:47:42.137Z,3.53
2023-01-27T01:48:43.191Z,4.70
2023-01-27T01:49:40.979Z,3.75
2023-01-27T01:50:40.830Z,5.10
2023-01-27T01:51:41.980Z,4.45
2023-01-27T01:52:38.576Z,5.07
2023-01-27T01:53:42.013Z,7.45
2023-01-27T01:54:48.423Z,9.63
2023-01-27T01:55:46.640Z,8.85
2023-01-27T01:57:04.568Z,8.98
2023-01-27T01:58:02.619Z,11.02
2023-01-27T01:59:05.274Z,10.35
2023-01-27T02:00:07.901Z,11.23
2023-01-27T02:01:05.809Z,13.63
2023-01-27T02:02:07.705Z,10.35
2023-01-27T02:03:04.684Z,13.77
2023-01-27T02:04:04.739Z,11.57
2023-01-27T02:05:06.817Z,11.65
2023-01-27T02:06:05.031Z,12.73
2023-01-27T02:07:13.501Z,11.93
2023-01-27T02:08:27.529Z,12.00
2023-01-27T02:09:24.717Z,10.50
2023-01-27T02:10:21.402Z,11.20
2023-01-27T02:11:18.637Z,12.48
2023-01-27T02:12:15.360Z,11.85
2023-01-27T02:13:12.342Z,14.10
2023-01-27T02:14:11.180Z,10.77
2023-01-27T02:15:10.123Z,11.85
2023-01-27T02:16:08.356Z,12.40
2023-01-27T02:17:05.781Z,11.35
2023-01-27T02:18:03.545Z,10.35
2023-01-27T02:19:00.137Z,10.70
2023-01-27T02:20:14.757Z,10.07
2023-01-27T02:21:11.521Z,9.65
2023-01-27T02:22:13.861Z,10.02
2023-01-27T02:23:27.907Z,11.15
2023-01-27T02:24:32.599Z,9.40
2023-01-27T02:25:35.059Z,9.27
2023-01-27T02:27:30.306Z,8.77
2023-01-27T02:28:29.246Z,9.02
2023-01-27T02:29:25.908Z,9.85
2023-01-27T02:30:22.669Z,9.85
2023-01-27T02:31:19.443Z,10.02
2023-01-27T02:32:26.499Z,10.63
2023-01-27T02:33:23.678Z,11.18
2023-01-27T02:34:24.837Z,10.32
2023-01-27T02:35:42.271Z,13.13
2023-01-27T02:36:51.584Z,9.23
2023-01-27T02:37:49.995Z,10.60
2023-01-27T02:38:55.641Z,14.60
2023-01-27T02:39:54.054Z,9.77
2023-01-27T02:40:53.567Z,41.53
2023-01-27T02:41:53.181Z,59.17
2023-01-27T02:42:50.022Z,13.68
2023-01-27T02:43:48.773Z,12.95
2023-01-27T02:44:45.506Z,9.85
2023-01-27T02:45:42.260Z,9.68
2023-01-27T02:46:38.997Z,10.63
2023-01-27T02:47:35.715Z,10.23
2023-01-27T02:48:32.412Z,10.60
2023-01-27T02:49:29.003Z,9.45
2023-01-27T02:50:25.591Z,10.15
2023-01-27T02:51:22.691Z,13.10
2023-01-27T02:52:19.288Z,17.83
2023-01-27T02:53:15.886Z,15.02
2023-01-27T02:54:12.724Z,11.77
2023-01-27T02:55:10.010Z,10.48
2023-01-27T02:56:07.232Z,12.45
2023-01-27T02:57:03.901Z,12.60
2023-01-27T02:58:00.494Z,11.85
2023-01-27T02:58:57.128Z,12.05
2023-01-27T02:59:53.754Z,16.75
2023-01-27T03:00:50.360Z,14.43
2023-01-27T03:01:47.035Z,14.60
2023-01-27T03:02:43.923Z,16.77
2023-01-27T03:03:49.416Z,13.65
2023-01-27T03:04:46.102Z,13.57
2023-01-27T03:05:42.812Z,15.43
2023-01-27T03:06:39.603Z,15.48
2023-01-27T03:07:36.211Z,14.68
2023-01-27T03:08:32.902Z,17.02
2023-01-27T03:09:29.451Z,17.83
2023-01-27T03:10:26.134Z,16.27
2023-01-27T03:11:41.250Z,16.95
2023-01-27T03:12:37.839Z,18.73
2023-01-27T03:13:34.626Z,18.33
2023-01-27T03:14:49.562Z,20.88
2023-01-27T03:16:04.799Z,17.23
2023-01-27T03:17:19.559Z,20.40
2023-01-27T03:18:16.327Z,30.30
2023-01-27T03:19:12.920Z,22.60
2023-01-27T03:20:10.331Z,22.00
2023-01-27T03:21:07.497Z,19.75
2023-01-27T03:22:04.124Z,22.77
2023-01-27T03:23:00.840Z,28.73
2023-01-27T03:23:57.932Z,36.25
2023-01-27T03:24:54.558Z,27.00
2023-01-27T03:25:51.179Z,67.07
2023-01-27T03:26:47.981Z,21.90
2023-01-27T03:27:44.960Z,24.98
2023-01-27T03:28:41.651Z,20.42
2023-01-27T03:29:56.072Z,20.13
2023-01-27T03:30:58.585Z,21.98
2023-01-27T03:31:55.356Z,24.45
2023-01-27T03:32:52.214Z,22.60
2023-01-27T03:33:48.911Z,22.63
2023-01-27T03:34:45.638Z,26.23
2023-01-27T03:35:48.357Z,23.08
2023-01-27T03:37:03.527Z,35.53
2023-01-27T03:38:20.380Z,22.67
2023-01-27T03:39:35.366Z,28.23
2023-01-27T03:40:50.371Z,79.78
2023-01-27T03:42:05.336Z,36.42
2023-01-27T03:43:21.196Z,188.55
2023-01-27T03:44:36.247Z,24.52
2023-01-27T03:45:51.346Z,128.43
2023-01-27T03:46:48.837Z,79.90
2023-01-27T03:47:45.555Z,40.75
2023-01-27T03:48:42.542Z,35.50
2023-01-27T03:49:39.269Z,60.08
2023-01-27T03:50:43.877Z,32.90
2023-01-27T03:51:40.793Z,25.40
2023-01-27T03:52:37.943Z,30.05
2023-01-27T03:53:35.679Z,31.08
2023-01-27T03:54:32.423Z,28.40
2023-01-27T03:55:33.594Z,26.77
2023-01-27T03:56:30.259Z,21.80
2023-01-27T03:57:26.918Z,23.90
2023-01-27T03:58:31.878Z,22.70
2023-01-27T03:59:28.567Z,23.52
2023-01-27T04:00:25.211Z,20.08
2023-01-27T04:01:24.105Z,20.75
2023-01-27T04:02:39.413Z,21.10
2023-01-27T04:03:54.987Z,15.40
2023-01-27T04:05:09.858Z,18.65
2023-01-27T04:06:28.727Z,16.73
2023-01-27T04:07:25.349Z,19.23
2023-01-27T04:08:22.135Z,16.90
2023-01-27T04:09:25.231Z,20.95
2023-01-27T04:10:21.805Z,20.35
2023-01-27T04:11:36.955Z,18.15
2023-01-27T04:12:33.630Z,19.33
2023-01-27T04:13:30.248Z,19.83
2023-01-27T04:14:38.281Z,18.35
2023-01-27T04:15:34.877Z,16.30
2023-01-27T04:16:32.126Z,17.00
2023-01-27T04:17:30.753Z,15.48
2023-01-27T04:18:27.366Z,19.00
2023-01-27T04:19:25.892Z,15.77
2023-01-27T04:20:23.610Z,18.35
2023-01-27T04:21:20.243Z,17.05
2023-01-27T04:22:17.141Z,17.00
2023-01-27T04:23:13.730Z,17.00
2023-01-27T04:24:22.724Z,23.48
2023-01-27T04:25:19.622Z,18.50
2023-01-27T04:26:16.309Z,15.75
2023-01-27T04:27:15.670Z,20.30
2023-01-27T04:28:12.310Z,18.40
2023-01-27T04:29:08.931Z,18.75
2023-01-27T04:30:06.121Z,24.52
2023-01-27T04:31:02.729Z,17.02
2023-01-27T04:31:59.337Z,16.10
2023-01-27T04:32:55.928Z,12.10
2023-01-27T04:33:52.911Z,11.68
2023-01-27T04:34:49.528Z,14.13
2023-01-27T04:35:46.624Z,13.15
2023-01-27T04:36:43.709Z,10.75
2023-01-27T04:37:40.328Z,11.95
2023-01-27T04:38:36.995Z,14.13
2023-01-27T04:39:34.788Z,11.50
2023-01-27T04:40:31.386Z,12.93
2023-01-27T04:41:28.348Z,12.35
2023-01-27T04:42:24.928Z,13.60
2023-01-27T04:43:21.768Z,12.95
2023-01-27T04:44:22.031Z,13.85
2023-01-27T04:45:18.646Z,14.10
2023-01-27T04:46:15.290Z,12.27
2023-01-27T04:47:11.847Z,15.05
2023-01-27T04:48:08.472Z,14.68
2023-01-27T04:49:06.353Z,14.85
2023-01-27T04:50:03.040Z,12.88
2023-01-27T04:50:59.591Z,14.80
2023-01-27T04:51:56.339Z,14.02
2023-01-27T04:52:52.988Z,11.18
2023-01-27T04:53:49.764Z,10.82
2023-01-27T04:54:46.340Z,10.23
2023-01-27T04:55:47.359Z,8.52
2023-01-27T04:56:56.837Z,10.68
2023-01-27T04:57:53.752Z,12.40
2023-01-27T04:58:50.468Z,11.77
2023-01-27T04:59:47.047Z,12.32
2023-01-27T05:00:45.121Z,15.13
2023-01-27T05:01:41.890Z,14.23
2023-01-27T05:02:38.506Z,16.25
2023-01-27T05:03:35.155Z,12.57
2023-01-27T05:04:32.479Z,11.45
2023-01-27T05:05:29.137Z,13.57
2023-01-27T05:06:26.924Z,12.02
2023-01-27T05:07:23.742Z,15.50
2023-01-27T05:08:20.664Z,16.08
2023-01-27T05:09:17.261Z,18.08
2023-01-27T05:10:13.874Z,12.68
2023-01-27T05:11:11.711Z,14.75
2023-01-27T05:12:08.536Z,13.27
2023-01-27T05:13:05.121Z,14.27
2023-01-27T05:14:01.751Z,10.98
2023-01-27T05:14:59.902Z,13.20
2023-01-27T05:16:09.977Z,12.93
2023-01-27T05:17:06.607Z,12.90
2023-01-27T05:18:03.339Z,15.82
2023-01-27T05:18:59.994Z,17.13
2023-01-27T05:19:56.522Z,15.70
2023-01-27T05:20:53.178Z,15.90
2023-01-27T05:21:49.829Z,13.10
2023-01-27T05:22:46.528Z,14.80
2023-01-27T05:23:43.714Z,10.98
2023-01-27T05:24:40.319Z,10.13
2023-01-27T05:25:36.951Z,11.75
2023-01-27T05:26:33.582Z,12.23
2023-01-27T05:27:30.156Z,10.60
2023-01-27T05:28:28.291Z,12.95
2023-01-27T05:29:25.041Z,11.82
2023-01-27T05:30:21.663Z,14.27
2023-01-27T05:31:24.241Z,13.25
2023-01-27T05:32:20.893Z,12.85
2023-01-27T05:33:17.492Z,9.93
2023-01-27T05:34:14.325Z,10.02
2023-01-27T05:35:11.299Z,10.50
2023-01-27T05:36:11.371Z,12.23
2023-01-27T05:37:07.942Z,10.50
2023-01-27T05:38:04.612Z,11.52
2023-01-27T05:39:01.365Z,10.77
2023-01-27T05:39:59.481Z,10.77
2023-01-27T05:41:02.108Z,12.15
2023-01-27T05:41:58.892Z,12.43
2023-01-27T05:42:55.518Z,11.82
2023-01-27T05:43:54.257Z,14.60
2023-01-27T05:44:50.782Z,13.25
2023-01-27T05:45:47.364Z,10.68
2023-01-27T05:46:44.066Z,16.65
2023-01-27T05:47:40.665Z,23.52
2023-01-27T05:48:39.609Z,14.63
2023-01-27T05:49:36.244Z,17.13
2023-01-27T05:50:32.786Z,16.80
2023-01-27T05:51:31.378Z,18.23
2023-01-27T05:52:27.924Z,17.70
2023-01-27T05:53:24.942Z,19.70
2023-01-27T05:54:21.516Z,20.38
2023-01-27T05:55:18.066Z,22.15
2023-01-27T05:56:18.135Z,25.60
2023-01-27T05:57:14.750Z,24.73
2023-01-27T05:58:11.355Z,27.63
2023-01-27T05:59:08.509Z,24.33
2023-01-27T06:00:05.829Z,30.15
2023-01-27T06:01:35.388Z,37.45
2023-01-27T06:02:32.616Z,24.88
2023-01-27T06:03:29.249Z,25.73
2023-01-27T06:04:26.262Z,27.30
2023-01-27T06:05:22.844Z,40.75
2023-01-27T06:06:21.489Z,28.33
2023-01-27T06:07:18.254Z,27.75
2023-01-27T06:08:14.795Z,29.48
2023-01-27T06:09:11.532Z,23.95
2023-01-27T06:10:08.784Z,25.58
2023-01-27T06:11:06.850Z,24.50
2023-01-27T06:12:03.481Z,21.00
2023-01-27T06:13:00.808Z,27.17
2023-01-27T06:13:59.858Z,23.38
2023-01-27T06:14:59.555Z,25.98
2023-01-27T06:15:56.228Z,19.95
2023-01-27T06:16:53.709Z,17.48
2023-01-27T06:17:52.741Z,20.10
2023-01-27T06:18:49.571Z,18.50
2023-01-27T06:19:46.104Z,19.30
2023-01-27T06:20:43.022Z,19.80
2023-01-27T06:21:39.650Z,21.05
2023-01-27T06:22:36.328Z,21.63
2023-01-27T06:23:33.136Z,19.70
2023-01-27T06:24:29.846Z,17.00
2023-01-27T06:25:26.429Z,21.05
2023-01-27T06:26:22.998Z,20.27
2023-01-27T06:27:19.573Z,17.52
2023-01-27T06:28:28.887Z,19.08
2023-01-27T06:29:26.214Z,21.85
2023-01-27T06:30:23.432Z,22.08
2023-01-27T06:31:22.180Z,22.10
2023-01-27T06:32:18.939Z,20.45
2023-01-27T06:33:15.532Z,22.30
2023-01-27T06:34:12.510Z,21.27
2023-01-27T06:35:09.298Z,25.33
2023-01-27T06:36:09.333Z,25.23
2023-01-27T06:37:05.928Z,23.63
2023-01-27T06:38:04.530Z,22.60
2023-01-27T06:39:01.114Z,21.73
2023-01-27T06:39:57.754Z,20.58
2023-01-27T06:40:54.338Z,21.13
2023-01-27T06:41:50.970Z,21.08
2023-01-27T06:42:47.656Z,21.10
2023-01-27T06:43:44.317Z,18.00
2023-01-27T06:44:40.918Z,16.17
2023-01-27T06:45:37.498Z,14.35
2023-01-27T06:46:34.324Z,13.30
2023-01-27T06:47:30.932Z,16.27
2023-01-27T06:48:28.145Z,11.18
2023-01-27T06:49:24.923Z,13.77
2023-01-27T06:50:21.758Z,16.33
2023-01-27T06:51:18.312Z,20.40
2023-01-27T06:52:14.880Z,16.63
2023-01-27T06:53:11.881Z,17.15
2023-01-27T06:54:08.443Z,18.23
2023-01-27T06:55:05.701Z,19.77
2023-01-27T06:56:02.561Z,23.15
2023-01-27T06:56:59.143Z,25.92
2023-01-27T06:57:55.832Z,31.02
2023-01-27T06:58:52.450Z,28.15
2023-01-27T06:59:49.013Z,28.15
2023-01-27T07:00:45.711Z,32.58
2023-01-27T07:01:42.454Z,27.73
2023-01-27T07:02:39.146Z,31.95
2023-01-27T07:03:35.916Z,28.55
2023-01-27T07:04:32.562Z,28.27
2023-01-27T07:05:29.325Z,27.60
2023-01-27T07:06:26.052Z,30.55
2023-01-27T07:07:22.648Z,34.88
2023-01-27T07:08:19.214Z,51.00
2023-01-27T07:09:15.759Z,34.30
2023-01-27T07:10:12.640Z,38.65
2023-01-27T07:11:09.432Z,49.28
2023-01-27T07:12:06.095Z,33.88
2023-01-27T07:13:10.710Z,49.22
2023-01-27T07:14:09.639Z,41.45
2023-01-27T07:15:09.426Z,93.43
2023-01-27T07:16:06.516Z,106.70
2023-01-27T07:17:03.316Z,36.33
2023-01-27T07:18:01.251Z,39.75
2023-01-27T07:18:57.815Z,40.25
2023-01-27T07:19:54.415Z,40.55
2023-01-27T07:20:52.148Z,42.33
2023-01-27T07:21:48.692Z,37.80
2023-01-27T07:22:45.250Z,40.90
2023-01-27T07:23:41.822Z,39.13
2023-01-27T07:24:38.714Z,45.88
2023-01-27T07:25:35.577Z,39.15
2023-01-27T07:26:32.200Z,36.92
2023-01-27T07:27:29.651Z,35.42
2023-01-27T07:28:26.273Z,37.30
2023-01-27T07:29:22.984Z,40.35
2023-01-27T07:30:19.745Z,38.55
2023-01-27T07:31:16.448Z,38.75
2023-01-27T07:32:13.331Z,37.42
2023-01-27T07:33:11.894Z,33.33
2023-01-27T07:34:08.588Z,27.35
2023-01-27T07:35:05.618Z,28.98
2023-01-27T07:36:02.245Z,32.05
2023-01-27T07:37:00.032Z,29.48
2023-01-27T07:37:58.234Z,28.92
2023-01-27T07:38:54.776Z,28.30
2023-01-27T07:39:51.391Z,29.65
2023-01-27T07:40:48.003Z,29.27
2023-01-27T07:41:44.546Z,26.05
2023-01-27T07:42:41.661Z,31.30
2023-01-27T07:43:38.323Z,29.98
2023-01-27T07:44:34.868Z,33.30
2023-01-27T07:45:31.785Z,28.77
2023-01-27T07:46:28.342Z,29.45
2023-01-27T07:47:24.985Z,29.35
2023-01-27T07:48:21.647Z,34.83
2023-01-27T07:49:18.341Z,34.20
2023-01-27T07:50:15.350Z,33.72
2023-01-27T07:51:13.942Z,26.23
2023-01-27T07:52:10.635Z,28.58
2023-01-27T07:53:07.438Z,26.73
2023-01-27T07:54:05.125Z,26.08
2023-01-27T07:55:01.758Z,27.60
2023-01-27T07:56:01.449Z,27.60
2023-01-27T07:57:01.650Z,29.27
2023-01-27T07:57:58.275Z,26.45
2023-01-27T07:58:55.800Z,29.17
2023-01-27T07:59:55.739Z,29.65
2023-01-27T08:00:52.484Z,33.50
2023-01-27T08:01:49.098Z,30.40
2023-01-27T08:02:51.153Z,31.60
2023-01-27T08:03:47.757Z,33.65
2023-01-27T08:04:52.961Z,32.72
2023-01-27T08:05:50.949Z,31.95
2023-01-27T08:06:47.647Z,28.40
2023-01-27T08:07:45.514Z,29.02
2023-01-27T08:08:42.252Z,29.25
2023-01-27T08:09:38.837Z,31.77
2023-01-27T08:10:35.483Z,28.33
2023-01-27T08:11:32.280Z,29.92
2023-01-27T08:12:28.857Z,29.90
2023-01-27T08:13:25.520Z,25.48
2023-01-27T08:14:22.113Z,25.30
2023-01-27T08:15:19.316Z,26.67
2023-01-27T08:16:16.595Z,24.02
2023-01-27T08:17:13.247Z,22.65
2023-01-27T08:18:10.610Z,19.23
2023-01-27T08:19:07.260Z,18.98
2023-01-27T08:20:04.652Z,22.05
2023-01-27T08:21:03.922Z,19.60
2023-01-27T08:22:00.478Z,24.05
2023-01-27T08:22:59.182Z,19.33
2023-01-27T08:23:55.852Z,25.80
2023-01-27T08:24:52.524Z,23.65
2023-01-27T08:25:53.871Z,25.75
2023-01-27T08:26:50.500Z,24.75
2023-01-27T08:27:51.034Z,27.48
2023-01-27T08:28:47.719Z,34.75
2023-01-27T08:29:44.361Z,42.22
2023-01-27T08:30:41.037Z,34.97
2023-01-27T08:31:37.932Z,40.13
2023-01-27T08:32:35.141Z,41.42
2023-01-27T08:33:32.389Z,36.65
2023-01-27T08:34:28.989Z,41.22
2023-01-27T08:35:25.567Z,41.05
2023-01-27T08:36:23.430Z,42.92
2023-01-27T08:37:20.116Z,47.05
2023-01-27T08:38:18.841Z,43.97
2023-01-27T08:39:15.817Z,44.95
2023-01-27T08:40:13.179Z,47.92
2023-01-27T08:41:13.194Z,34.60
2023-01-27T08:42:09.765Z,42.58
2023-01-27T08:43:07.421Z,43.13
2023-01-27T08:44:04.173Z,36.22
2023-01-27T08:45:00.701Z,39.03
2023-01-27T08:45:58.137Z,44.22
2023-01-27T08:46:55.567Z,43.25
2023-01-27T08:47:52.116Z,37.67
2023-01-27T08:48:50.327Z,36.50
2023-01-27T08:49:48.011Z,36.90
2023-01-27T08:50:44.564Z,38.92
2023-01-27T08:51:42.436Z,47.95
2023-01-27T08:52:39.307Z,36.00
2023-01-27T08:53:37.081Z,36.47
2023-01-27T08:54:33.661Z,38.08
2023-01-27T08:55:32.331Z,36.67
2023-01-27T08:56:30.741Z,38.83
2023-01-27T08:57:27.437Z,40.08
2023-01-27T08:58:24.839Z,36.25
2023-01-27T08:59:21.517Z,36.17
2023-01-27T09:00:18.590Z,38.75
2023-01-27T09:01:16.127Z,39.50
2023-01-27T09:02:13.482Z,35.88
2023-01-27T09:03:10.145Z,33.40
2023-01-27T09:04:06.726Z,31.13
2023-01-27T09:05:03.686Z,33.20
2023-01-27T09:06:00.897Z,33.60
2023-01-27T09:06:57.845Z,36.00
2023-01-27T09:07:54.769Z,36.15
2023-01-27T09:09:11.695Z,33.55
2023-01-27T09:10:16.574Z,36.53
2023-01-27T09:11:17.814Z,35.47
2023-01-27T09:12:14.851Z,32.40
2023-01-27T09:13:11.634Z,31.83
2023-01-27T09:14:08.709Z,36.10
2023-01-27T09:15:05.726Z,34.65
2023-01-27T09:16:02.890Z,33.85
2023-01-27T09:16:59.689Z,31.60
2023-01-27T09:17:58.403Z,34.58
2023-01-27T09:18:55.371Z,36.90
2023-01-27T09:19:52.038Z,38.63
2023-01-27T09:20:48.680Z,40.50
2023-01-27T09:21:45.304Z,36.13
2023-01-27T09:22:42.325Z,30.45
2023-01-27T09:23:38.999Z,32.70
2023-01-27T09:24:35.605Z,35.67
2023-01-27T09:25:32.422Z,33.17
2023-01-27T09:26:28.976Z,32.63
2023-01-27T09:27:38.127Z,33.92
2023-01-27T09:28:35.576Z,47.28
2023-01-27T09:29:32.208Z,151.10
2023-01-27T09:30:29.356Z,112.13
2023-01-27T09:31:26.047Z,489.45
2023-01-27T09:32:22.751Z,166.00
2023-01-27T09:33:19.497Z,245.57
2023-01-27T09:34:17.887Z,442.25
2023-01-27T09:35:14.928Z,151.13
2023-01-27T09:36:15.683Z,111.78
2023-01-27T09:37:13.630Z,209.48
2023-01-27T09:38:12.200Z,256.40
2023-01-27T09:39:09.220Z,255.35
2023-01-27T09:40:28.821Z,177.18
2023-01-27T09:41:37.605Z,90.18
2023-01-27T09:42:40.226Z,150.30
2023-01-27T09:44:06.046Z,142.15
2023-01-27T09:45:26.112Z,36.28
2023-01-27T09:47:00.143Z,21.40
2023-01-27T09:48:23.276Z,20.23
2023-01-27T09:49:32.593Z,149.88
2023-01-27T09:50:57.837Z,466.52
2023-01-27T09:52:47.501Z,480.08
2023-01-27T09:54:03.226Z,279.40
2023-01-27T09:55:05.624Z,146.07
2023-01-27T09:57:25.318Z,525.63
2023-01-27T09:58:40.554Z,45.47
2023-01-27T09:59:49.282Z,19.35
2023-01-27T10:00:59.815Z,365.40
2023-01-27T10:02:12.474Z,56.75
2023-01-27T10:03:26.910Z,66.07
2023-01-27T10:04:42.516Z,81.13
2023-01-27T10:05:48.081Z,136.90
2023-01-27T10:07:26.752Z,91.00
2023-01-27T10:08:38.655Z,120.88
2023-01-27T10:09:41.187Z,123.32
2023-01-27T10:10:40.530Z,51.08
2023-01-27T10:11:56.831Z,37.00
2023-01-27T10:13:07.064Z,30.15
2023-01-27T10:14:34.887Z,18.77
2023-01-27T10:16:03.269Z,40.53
2023-01-27T10:17:12.105Z,104.55
2023-01-27T10:18:29.008Z,134.07
2023-01-27T10:19:40.172Z,25.05
2023-01-27T10:20:46.253Z,21.20
2023-01-27T10:21:42.862Z,136.70
2023-01-27T10:22:45.377Z,100.55
2023-01-27T10:23:52.122Z,85.15
2023-01-27T10:25:18.003Z,45.60
2023-01-27T10:26:31.712Z,37.72
2023-01-27T10:27:37.064Z,66.38
2023-01-27T10:28:34.615Z,87.88
2023-01-27T10:29:45.561Z,61.72
2023-01-27T10:30:58.885Z,35.22
2023-01-27T10:32:20.436Z,49.58
2023-01-27T10:33:19.860Z,159.95
2023-01-27T10:34:22.485Z,147.95
2023-01-27T10:35:30.909Z,113.93
2023-01-27T10:36:52.405Z,101.18
2023-01-27T10:38:14.505Z,206.77
2023-01-27T10:39:31.707Z,258.40
2023-01-27T10:40:28.406Z,107.82
2023-01-27T10:41:44.913Z,99.03
2023-01-27T10:43:08.439Z,128.98
2023-01-27T10:44:04.995Z,105.97
2023-01-27T10:45:42.716Z,146.57
2023-01-27T10:46:48.417Z,111.88
2023-01-27T10:47:47.774Z,471.30
2023-01-27T10:48:44.324Z,416.08
2023-01-27T10:49:47.140Z,160.20
2023-01-27T10:50:50.276Z,213.02
2023-01-27T10:51:53.371Z,671.63
2023-01-27T10:52:55.823Z,660.33
2023-01-27T10:55:22.611Z,111.72
2023-01-27T10:56:47.976Z,34.97
2023-01-27T10:58:01.906Z,37.92
2023-01-27T10:59:35.533Z,77.28
2023-01-27T11:01:09.093Z,64.68
2023-01-27T11:02:13.551Z,45.17
2023-01-27T11:03:15.524Z,35.75
2023-01-27T11:04:24.018Z,38.72
2023-01-27T11:05:28.731Z,162.23
2023-01-27T11:06:30.829Z,131.48
2023-01-27T11:07:27.708Z,125.65
2023-01-27T11:08:36.727Z,128.35
2023-01-27T11:09:49.275Z,83.32
2023-01-27T11:11:08.630Z,36.88
2023-01-27T11:12:12.715Z,21.85
2023-01-27T11:13:14.748Z,41.40
2023-01-27T11:14:31.102Z,110.60
2023-01-27T11:15:32.004Z,57.53
2023-01-27T11:16:35.469Z,50.30
2023-01-27T11:17:45.015Z,31.67
2023-01-27T11:18:43.335Z,27.95
2023-01-27T11:19:48.499Z,29.98
2023-01-27T11:20:49.560Z,29.92
2023-01-27T11:21:50.747Z,25.42
2023-01-27T11:23:10.242Z,27.38
2023-01-27T11:24:33.180Z,45.60
2023-01-27T11:25:43.079Z,30.67
2023-01-27T11:26:43.594Z,31.58
2023-01-27T11:28:18.941Z,48.17
2023-01-27T11:29:42.492Z,41.03
2023-01-27T11:31:02.696Z,170.70
2023-01-27T11:32:23.172Z,117.80
2023-01-27T11:33:40.665Z,78.88
2023-01-27T11:35:12.393Z,57.92
2023-01-27T11:36:09.987Z,17.05
2023-01-27T11:37:29.881Z,21.00
2023-01-27T11:38:26.538Z,15.65
2023-01-27T11:39:23.516Z,12.32
2023-01-27T11:40:27.939Z,31.63
2023-01-27T11:41:25.414Z,17.30
2023-01-27T11:42:22.949Z,9.82
2023-01-27T11:43:23.975Z,9.75
2023-01-27T11:44:34.048Z,8.98
2023-01-27T11:45:35.490Z,8.48
2023-01-27T11:46:35.135Z,7.30
2023-01-27T11:47:39.032Z,8.50
2023-01-27T11:48:43.695Z,9.77
2023-01-27T11:49:44.973Z,8.15
2023-01-27T11:50:42.977Z,8.88
2023-01-27T11:51:40.384Z,7.55
2023-01-27T11:52:37.084Z,7.53
2023-01-27T11:53:40.006Z,33.00
2023-01-27T11:55:08.433Z,146.95
2023-01-27T11:56:16.063Z,70.43
2023-01-27T11:57:23.862Z,35.53
2023-01-27T11:58:30.334Z,81.45
2023-01-27T11:59:35.276Z,24.90
2023-01-27T12:00:43.077Z,36.55
2023-01-27T12:02:02.841Z,21.58
2023-01-27T12:03:19.978Z,25.20
2023-01-27T12:04:31.726Z,32.05
2023-01-27T12:05:34.132Z,23.23
2023-01-27T12:08:01.938Z,177.23
2023-01-27T12:09:01.309Z,55.13
2023-01-27T12:09:58.892Z,172.48
2023-01-27T12:10:55.505Z,135.07
2023-01-27T12:12:11.454Z,143.13
2023-01-27T12:13:20.176Z,70.20
2023-01-27T12:14:16.776Z,100.25
2023-01-27T12:15:16.707Z,100.05
2023-01-27T12:16:13.963Z,42.40
2023-01-27T12:17:21.269Z,35.22
2023-01-27T12:18:17.971Z,26.15
2023-01-27T12:19:29.373Z,22.70
2023-01-27T12:20:34.410Z,64.32
2023-01-27T12:21:41.778Z,58.97
2023-01-27T12:22:40.623Z,31.75
2023-01-27T12:23:46.805Z,21.00
2023-01-27T12:24:49.958Z,26.50
2023-01-27T12:25:53.325Z,29.02
2023-01-27T12:26:52.383Z,29.92
2023-01-27T12:27:56.992Z,65.93
2023-01-27T12:28:54.350Z,36.22
2023-01-27T12:29:55.626Z,39.25
2023-01-27T12:30:55.920Z,35.50
2023-01-27T12:31:55.756Z,50.92
2023-01-27T12:32:54.199Z,109.82
2023-01-27T12:33:58.416Z,37.25
2023-01-27T12:34:56.520Z,38.35
2023-01-27T12:35:59.934Z,24.17
2023-01-27T12:36:58.323Z,38.13
2023-01-27T12:38:05.091Z,36.75
2023-01-27T12:39:02.853Z,22.85
2023-01-27T12:40:03.621Z,22.85
2023-01-27T12:41:04.221Z,24.08
2023-01-27T12:42:00.908Z,31.65
2023-01-27T12:43:03.451Z,52.15
2023-01-27T12:44:16.188Z,27.73
2023-01-27T12:45:25.557Z,26.38
2023-01-27T12:46:27.761Z,28.77
2023-01-27T12:47:26.620Z,40.38
2023-01-27T12:48:23.193Z,41.20
2023-01-27T12:49:20.920Z,33.67
2023-01-27T12:50:23.542Z,70.53
2023-01-27T12:52:21.229Z,28.83
2023-01-27T12:53:20.244Z,51.28
2023-01-27T12:54:28.542Z,53.25
2023-01-27T12:55:36.146Z,66.47
2023-01-27T12:56:34.613Z,46.60
2023-01-27T12:57:33.081Z,23.63
2023-01-27T12:58:29.874Z,21.58
2023-01-27T12:59:27.218Z,19.50
2023-01-27T13:00:25.589Z,23.63
2023-01-27T13:01:30.356Z,34.85
2023-01-27T13:02:32.394Z,208.50
2023-01-27T13:03:29.909Z,36.38
2023-01-27T13:04:27.320Z,182.60
2023-01-27T13:05:24.691Z,158.48
2023-01-27T13:06:31.498Z,166.70
2023-01-27T13:07:42.949Z,70.80
2023-01-27T13:08:41.734Z,41.63
2023-01-27T13:10:02.944Z,29.38
2023-01-27T13:11:02.224Z,25.98
2023-01-27T13:12:02.500Z,24.48
2023-01-27T13:13:01.214Z,24.13
2023-01-27T13:13:59.540Z,23.38